Time;durP1;ratioP1;P1;durP2;ratioP2;P2;SDS_P1;SDS_P2;PMS_P1;PMS_P2;Temp;Humidity;BMP_temperature;BMP_pressure;BME280_temperature;BME280_humidity;BME280_pressure;Samples;Min_cycle;Max_cycle;Signal;HPM_P1;HPM_P2
2022/01/08 00:00:06;;;;;;;20.02;9.05;;;;;;;0.14;100.00;100925.13;5076642;28;20067;-74
2022/01/08 00:02:31;;;;;;;17.17;8.55;;;;;;;0.10;100.00;100917.63;5088887;28;20021;-70
2022/01/08 00:04:58;;;;;;;21.45;11.43;;;;;;;0.14;100.00;100932.97;5088796;28;20035;-70
2022/01/08 00:07:23;;;;;;;17.75;9.95;;;;;;;0.16;100.00;100938.94;5089190;28;20493;-70
2022/01/08 00:09:49;;;;;;;19.02;8.68;;;;;;;0.01;100.00;100915.78;5089064;28;20024;-70
2022/01/08 00:12:14;;;;;;;21.90;10.57;;;;;;;0.09;100.00;100939.56;5088989;28;20029;-70
2022/01/08 00:14:40;;;;;;;17.20;9.80;;;;;;;0.11;100.00;100945.53;5088943;28;20038;-70
2022/01/08 00:17:05;;;;;;;18.17;10.48;;;;;;;0.12;100.00;100953.25;5087770;28;20062;-70
2022/01/08 00:19:30;;;;;;;16.88;8.27;;;;;;;0.11;100.00;100948.97;5089008;28;20352;-70
2022/01/08 00:21:56;;;;;;;21.27;9.93;;;;;;;0.10;100.00;100939.44;5089067;28;20032;-70
2022/01/08 00:24:22;;;;;;;17.20;8.80;;;;;;;0.10;100.00;100941.22;5088910;28;20043;-70
2022/01/08 00:26:47;;;;;;;17.23;10.32;;;;;;;0.07;100.00;100947.56;5090902;28;20043;-70
2022/01/08 00:29:13;;;;;;;16.40;8.45;;;;;;;0.05;100.00;100952.09;5092695;28;20936;-70
2022/01/08 00:31:38;;;;;;;23.58;10.30;;;;;;;0.02;100.00;100944.47;5092631;28;20039;-70
2022/01/08 00:34:04;;;;;;;18.02;8.43;;;;;;;0.04;100.00;100955.69;5091551;28;20036;-70
2022/01/08 00:36:29;;;;;;;17.90;9.88;;;;;;;0.02;100.00;100954.97;5092772;28;20028;-70
2022/01/08 00:38:54;;;;;;;18.80;9.13;;;;;;;-0.01;100.00;100950.81;5092821;28;20020;-70
2022/01/08 00:41:20;;;;;;;18.42;9.30;;;;;;;-0.01;100.00;100960.47;5092676;28;20035;-70
2022/01/08 00:43:45;;;;;;;16.70;8.50;;;;;;;-0.03;100.00;100965.00;5092519;28;20044;-70
2022/01/08 00:46:10;;;;;;;19.50;9.20;;;;;;;-0.09;100.00;100953.22;5092552;28;20032;-70
2022/01/08 00:48:36;;;;;;;21.15;9.13;;;;;;;-0.06;100.00;100976.56;5092596;28;20047;-70
2022/01/08 00:51:01;;;;;;;19.20;10.32;;;;;;;-0.08;100.00;100973.25;5092578;28;20028;-70
2022/01/08 00:53:26;;;;;;;21.10;10.77;;;;;;;-0.09;100.00;100974.19;5092121;28;20043;-70
2022/01/08 00:55:52;;;;;;;15.77;8.73;;;;;;;-0.10;100.00;100976.94;5092209;28;20035;-72
2022/01/08 00:58:17;;;;;;;18.98;9.82;;;;;;;-0.13;100.00;100978.03;5092287;28;20028;-70
2022/01/08 01:00:43;;;;;;;19.23;8.68;;;;;;;-0.14;100.00;100989.47;5092154;28;20383;-70
2022/01/08 01:03:08;;;;;;;20.55;10.02;;;;;;;-0.16;100.00;100980.06;5092267;28;20024;-70
2022/01/08 01:05:34;;;;;;;16.90;9.00;;;;;;;-0.17;100.00;100984.47;5090910;28;20031;-70
2022/01/08 01:07:59;;;;;;;19.85;9.88;;;;;;;-0.18;100.00;100985.44;5092129;28;20031;-70
2022/01/08 01:10:25;;;;;;;20.88;10.07;;;;;;;-0.19;100.00;100989.00;5092125;28;20038;-70
2022/01/08 01:12:50;;;;;;;17.85;8.68;;;;;;;-0.20;100.00;100976.84;5091740;28;20506;-70
2022/01/08 01:15:16;;;;;;;19.23;9.13;;;;;;;-0.21;100.00;100975.16;5091806;28;20055;-70
2022/01/08 01:17:43;;;;;;;17.75;8.52;;;;;;;-0.18;100.00;100974.09;5092034;28;20039;-70
2022/01/08 01:20:10;;;;;;;21.30;9.80;;;;;;;-0.22;100.00;100965.66;5092046;28;20035;-70
2022/01/08 01:22:46;;;;;;;18.00;9.55;;;;;;;-0.19;100.00;100970.66;5091535;28;20059;-72
2022/01/08 01:25:17;;;;;;;18.17;8.48;;;;;;;-0.14;100.00;100971.09;5077313;28;20028;-72
2022/01/08 01:30:20;;;;;;;18.80;8.25;;;;;;;-0.16;100.00;100978.25;5091835;28;20031;-70
2022/01/08 01:41:21;;;;;;;21.83;11.15;;;;;;;-0.33;100.00;100971.75;5091687;28;20430;-70
2022/01/08 01:49:14;;;;;;;21.85;8.63;;;;;;;-0.32;100.00;100996.19;5091713;28;20496;-70
2022/01/08 01:51:40;;;;;;;16.92;8.77;;;;;;;-0.34;100.00;100990.22;5091068;28;20119;-72
2022/01/08 01:54:05;;;;;;;17.45;8.18;;;;;;;-0.34;100.00;100988.47;5090571;28;20028;-71
2022/01/08 01:56:31;;;;;;;20.77;10.15;;;;;;;-0.35;100.00;100997.25;5091282;28;20483;-70
2022/01/08 01:58:56;;;;;;;18.05;9.77;;;;;;;-0.36;100.00;100995.59;5071758;28;20422;-70
2022/01/08 02:01:22;;;;;;;16.92;8.25;;;;;;;-0.41;100.00;100982.03;5071801;28;20032;-70
2022/01/08 02:03:47;;;;;;;18.00;8.43;;;;;;;-0.39;100.00;100981.88;5071783;28;20070;-72
2022/01/08 02:06:13;;;;;;;17.42;7.85;;;;;;;-0.40;100.00;100975.00;5071618;28;20127;-72
2022/01/08 02:08:39;;;;;;;26.50;11.02;;;;;;;-0.46;100.00;100979.78;5071582;28;20043;-70
2022/01/08 02:11:06;;;;;;;17.58;9.52;;;;;;;-0.45;100.00;100978.84;5071529;28;20159;-70
2022/01/08 02:13:32;;;;;;;21.70;10.10;;;;;;;-0.46;100.00;100977.16;5090854;28;20535;-70
2022/01/08 02:16:01;;;;;;;21.30;10.20;;;;;;;-0.48;100.00;100973.81;5090958;28;20395;-70
2022/01/08 02:18:28;;;;;;;19.33;9.77;;;;;;;-0.49;100.00;100977.41;5090824;28;20032;-70
2022/01/08 02:20:59;;;;;;;17.92;8.70;;;;;;;-0.49;100.00;100981.81;5090925;28;20028;-70
2022/01/08 02:23:26;;;;;;;21.20;11.10;;;;;;;-0.51;100.00;100975.84;5090732;28;20028;-70
2022/01/08 02:26:00;;;;;;;20.95;10.35;;;;;;;-0.51;100.00;100975.84;5090433;28;20027;-70
2022/01/08 02:28:26;;;;;;;19.85;10.65;;;;;;;-0.53;100.00;100975.97;5090407;28;20432;-70
2022/01/08 02:30:51;;;;;;;20.42;10.20;;;;;;;-0.54;100.00;100982.16;5090534;28;20107;-70
2022/01/08 02:33:17;;;;;;;19.65;9.90;;;;;;;-0.65;100.00;100965.66;5089529;28;20032;-70
2022/01/08 02:35:42;;;;;;;24.67;12.18;;;;;;;-0.58;100.00;100979.91;5089769;28;20481;-70
2022/01/08 02:38:07;;;;;;;25.27;12.50;;;;;;;-0.59;100.00;100978.25;5090382;28;20050;-72
2022/01/08 02:40:35;;;;;;;23.08;11.07;;;;;;;-0.56;100.00;100981.44;5090243;28;20142;-70
2022/01/08 02:43:03;;;;;;;26.50;12.70;;;;;;;-0.58;100.00;100985.16;5090184;28;20064;-70
2022/01/08 02:45:30;;;;;;;22.33;11.18;;;;;;;-0.55;100.00;100988.38;5070813;28;20029;-70
2022/01/08 02:47:56;;;;;;;23.35;12.32;;;;;;;-0.58;100.00;100983.34;5070552;28;20074;-70
2022/01/08 02:50:23;;;;;;;24.80;13.45;;;;;;;-0.51;100.00;100996.81;5070779;28;20028;-69
2022/01/08 02:52:50;;;;;;;25.02;12.80;;;;;;;-0.54;100.00;100997.88;5070537;28;20108;-70
2022/01/08 02:55:18;;;;;;;25.50;12.60;;;;;;;-0.54;100.00;101002.31;5070755;28;20115;-70
2022/01/08 02:57:43;;;;;;;23.67;12.88;;;;;;;-0.57;100.00;100999.94;5070730;28;20024;-69
2022/01/08 03:00:11;;;;;;;27.45;14.50;;;;;;;-0.59;100.00;101000.03;5070579;28;20817;-69
2022/01/08 03:02:42;;;;;;;26.88;13.77;;;;;;;-0.59;100.00;100996.59;5070565;28;20443;-69
2022/01/08 03:05:10;;;;;;;24.70;12.67;;;;;;;-0.60;100.00;100993.13;5070586;28;20490;-69
2022/01/08 03:07:36;;;;;;;24.08;13.25;;;;;;;-0.57;100.00;100986.81;5070422;28;20319;-70
2022/01/08 03:10:02;;;;;;;25.63;13.90;;;;;;;-0.56;100.00;100999.78;5069045;28;20032;-69
2022/01/08 03:12:27;;;;;;;24.10;12.40;;;;;;;-0.60;100.00;100992.28;5070200;28;20024;-69
2022/01/08 03:14:55;;;;;;;25.30;14.52;;;;;;;-0.57;100.00;101000.75;5070307;28;20028;-70
2022/01/08 03:17:20;;;;;;;28.10;14.82;;;;;;;-0.56;100.00;100997.16;5070320;28;20394;-70
2022/01/08 03:19:46;;;;;;;24.23;13.63;;;;;;;-0.55;100.00;100998.84;5070458;28;20021;-70
2022/01/08 03:22:12;;;;;;;26.30;15.60;;;;;;;-0.62;100.00;100981.94;5070299;28;20036;-69
2022/01/08 03:24:39;;;;;;;25.63;14.23;;;;;;;-0.60;100.00;100997.53;5068848;28;20081;-72
2022/01/08 03:27:05;;;;;;;22.67;12.40;;;;;;;-0.59;100.00;101000.03;5089607;28;20032;-70
2022/01/08 03:29:31;;;;;;;27.15;12.10;;;;;;;-0.61;100.00;101001.94;5089689;28;20028;-70
2022/01/08 03:31:56;;;;;;;25.50;13.98;;;;;;;-0.62;100.00;100999.44;5069802;28;20024;-70
2022/01/08 03:34:22;;;;;;;24.83;12.40;;;;;;;-0.63;100.00;101000.38;5069369;28;20059;-70
2022/01/08 03:36:47;;;;;;;22.60;13.30;;;;;;;-0.64;100.00;101004.81;5069861;28;20036;-70
2022/01/08 03:39:13;;;;;;;23.70;14.13;;;;;;;-0.67;100.00;101000.63;5070056;28;20067;-70
2022/01/08 03:41:38;;;;;;;22.60;12.88;;;;;;;-0.77;100.00;100989.22;5070129;28;20021;-71
2022/01/08 03:44:04;;;;;;;35.13;16.75;;;;;;;-0.64;100.00;101009.22;5069818;28;20051;-70
2022/01/08 03:46:34;;;;;;;24.85;11.90;;;;;;;-0.70;100.00;101000.06;5070012;28;20483;-70
2022/01/08 03:51:28;;;;;;;24.27;12.45;;;;;;;-0.67;100.00;101016.34;5089230;28;20036;-70
2022/01/08 03:53:54;;;;;;;20.95;13.32;;;;;;;-0.71;100.00;101007.09;5089208;28;20032;-72
2022/01/08 03:56:19;;;;;;;33.08;14.10;;;;;;;-0.64;100.00;101014.44;5089234;28;20036;-70
2022/01/08 03:58:45;;;;;;;24.08;14.32;;;;;;;-0.64;100.00;101023.13;5089349;28;20028;-70
2022/01/08 04:01:10;;;;;;;23.70;13.07;;;;;;;-0.68;100.00;101017.31;5088708;28;20028;-70
2022/01/08 04:03:35;;;;;;;33.40;13.40;;;;;;;-0.70;100.00;101007.91;5093300;28;20052;-70
2022/01/08 04:06:01;;;;;;;20.25;11.43;;;;;;;-0.71;100.00;101004.47;5093338;28;20368;-71
2022/01/08 04:08:27;;;;;;;22.15;11.88;;;;;;;-0.73;100.00;101010.78;5091898;28;20111;-70
2022/01/08 04:10:52;;;;;;;26.38;12.43;;;;;;;-0.76;100.00;101010.97;5093147;28;20044;-72
2022/01/08 04:13:25;;;;;;;21.08;11.15;;;;;;;-0.72;100.00;101015.03;5092979;28;20069;-69
2022/01/08 04:15:55;;;;;;;21.10;11.02;;;;;;;-0.83;100.00;101004.59;5092804;28;20027;-69
2022/01/08 04:18:20;;;;;;;21.55;10.68;;;;;;;-0.83;100.00;101005.41;5093104;28;20089;-70
2022/01/08 04:23:29;;;;;;;20.00;10.57;;;;;;;-0.77;100.00;101028.50;5093397;28;20085;-70
2022/01/08 04:25:54;;;;;;;26.75;12.27;;;;;;;-0.78;100.00;101026.84;5093349;28;20043;-70
2022/01/08 04:28:20;;;;;;;22.70;11.38;;;;;;;-0.80;100.00;101027.91;5092974;28;20594;-71
2022/01/08 04:30:45;;;;;;;28.02;13.05;;;;;;;-0.75;100.00;101033.63;5092831;28;20040;-70
2022/01/08 04:33:11;;;;;;;21.70;11.68;;;;;;;-0.73;100.00;101029.09;5092803;28;20023;-70
2022/01/08 04:35:37;;;;;;;21.73;11.93;;;;;;;-0.73;100.00;101029.94;5092770;28;20036;-70
2022/01/08 04:38:02;;;;;;;23.98;11.43;;;;;;;-0.72;100.00;101034.19;5092848;28;20036;-70
2022/01/08 04:40:28;;;;;;;25.52;11.85;;;;;;;-0.72;100.00;101033.38;5092752;28;20032;-70
2022/01/08 04:42:53;;;;;;;21.23;11.18;;;;;;;-0.71;100.00;101037.66;5092582;28;20048;-70
2022/01/08 04:45:21;;;;;;;24.60;11.05;;;;;;;-0.74;100.00;101041.34;5092605;28;20028;-70
2022/01/08 04:47:46;;;;;;;26.52;11.77;;;;;;;-0.69;100.00;101041.81;5092566;28;20028;-70
2022/01/08 04:50:12;;;;;;;22.73;11.30;;;;;;;-0.68;100.00;101042.69;5092636;28;20026;-70
2022/01/08 04:52:38;;;;;;;23.17;11.98;;;;;;;-0.67;100.00;101044.31;5091182;28;20073;-70
2022/01/08 04:55:04;;;;;;;27.80;12.13;;;;;;;-0.69;100.00;101044.44;5092604;28;20043;-72
2022/01/08 04:57:29;;;;;;;21.55;12.30;;;;;;;-0.70;100.00;101045.41;5092362;28;20040;-70
2022/01/08 04:59:55;;;;;;;31.92;13.63;;;;;;;-0.72;100.00;101043.84;5091156;28;20184;-70
2022/01/08 05:02:20;;;;;;;23.00;12.40;;;;;;;-0.73;100.00;101047.44;5092286;28;20043;-70
2022/01/08 05:04:45;;;;;;;21.42;11.95;;;;;;;-0.75;100.00;101046.72;5092262;28;20032;-70
2022/01/08 05:07:11;;;;;;;19.13;10.45;;;;;;;-0.76;100.00;101051.13;5092325;28;20125;-70
2022/01/08 05:09:36;;;;;;;22.38;12.73;;;;;;;-0.78;100.00;101049.56;5092214;28;20471;-70
2022/01/08 05:12:02;;;;;;;24.83;12.88;;;;;;;-0.77;100.00;101059.09;5091728;28;20024;-70
2022/01/08 05:14:27;;;;;;;21.73;12.10;;;;;;;-0.77;100.00;101061.69;5090664;28;20028;-70
2022/01/08 05:16:58;;;;;;;29.75;12.50;;;;;;;-0.77;100.00;101062.53;5092158;28;20047;-70
2022/01/08 05:19:36;;;;;;;25.15;13.75;;;;;;;-0.77;100.00;101056.47;5091879;28;20028;-70
2022/01/08 05:22:01;;;;;;;30.17;12.40;;;;;;;-0.76;100.00;101060.75;5091867;28;20070;-70
2022/01/08 05:24:27;;;;;;;21.40;12.55;;;;;;;-0.76;100.00;101058.13;5078485;28;20037;-70
2022/01/08 05:26:52;;;;;;;24.42;12.48;;;;;;;-0.76;100.00;101055.50;5072283;28;20857;-71
2022/01/08 05:29:17;;;;;;;19.58;12.00;;;;;;;-0.81;100.00;101050.63;5072218;28;20041;-70
2022/01/08 05:31:43;;;;;;;27.85;13.85;;;;;;;-0.80;100.00;101047.06;5072242;28;20032;-70
2022/01/08 05:34:08;;;;;;;22.75;12.65;;;;;;;-0.84;100.00;101050.84;5072130;28;20468;-70
2022/01/08 05:36:34;;;;;;;23.70;12.60;;;;;;;-0.86;100.00;101054.53;5072276;28;20029;-70
2022/01/08 05:38:59;;;;;;;21.40;12.05;;;;;;;-0.83;100.00;101062.19;5072088;28;20024;-70
2022/01/08 05:41:24;;;;;;;24.08;13.07;;;;;;;-0.88;100.00;101055.50;5072039;28;20558;-70
2022/01/08 05:43:50;;;;;;;28.50;13.85;;;;;;;-0.83;100.00;101063.00;5071685;28;20092;-70
2022/01/08 05:46:15;;;;;;;24.15;13.35;;;;;;;-0.82;100.00;101056.81;5071960;28;20076;-70
2022/01/08 05:48:41;;;;;;;27.55;13.75;;;;;;;-0.85;100.00;101049.19;5090920;28;20043;-70
2022/01/08 05:51:06;;;;;;;22.52;11.73;;;;;;;-0.82;100.00;101051.56;5091211;28;20027;-70
2022/01/08 05:53:31;;;;;;;23.25;13.45;;;;;;;-0.82;100.00;101059.44;5091410;28;20028;-70
2022/01/08 05:55:57;;;;;;;20.85;12.80;;;;;;;-0.78;100.00;101071.34;5091270;28;20032;-70
2022/01/08 05:58:22;;;;;;;22.90;12.00;;;;;;;-0.79;100.00;101067.03;5089714;28;20118;-70
2022/01/08 06:00:47;;;;;;;20.40;12.00;;;;;;;-0.79;100.00;101067.03;5091130;28;20059;-70
2022/01/08 06:03:13;;;;;;;21.13;11.88;;;;;;;-0.79;100.00;101069.66;5076990;28;20059;-70
2022/01/08 06:05:38;;;;;;;23.77;12.32;;;;;;;-0.79;100.00;101080.13;5071749;28;20036;-70
2022/01/08 06:08:04;;;;;;;19.13;10.02;;;;;;;-0.76;100.00;101089.53;5071788;28;20111;-70
2022/01/08 06:10:29;;;;;;;20.55;11.05;;;;;;;-0.75;100.00;101083.38;5071316;28;20072;-70
2022/01/08 06:12:54;;;;;;;20.90;10.57;;;;;;;-0.71;100.00;101092.63;5070962;28;20028;-70
2022/01/08 06:15:20;;;;;;;19.35;11.20;;;;;;;-0.69;100.00;101093.38;5071482;28;20390;-70
2022/01/08 06:17:46;;;;;;;18.77;11.95;;;;;;;-0.68;100.00;101095.88;5071458;28;20032;-70
2022/01/08 06:20:12;;;;;;;21.02;10.45;;;;;;;-0.66;100.00;101100.97;5070252;28;20032;-70
2022/01/08 06:22:37;;;;;;;20.88;11.57;;;;;;;-0.65;100.00;101097.44;5071406;28;20017;-70
2022/01/08 06:25:03;;;;;;;20.20;11.00;;;;;;;-0.66;100.00;101090.50;5070892;28;20032;-70
2022/01/08 06:27:28;;;;;;;20.38;9.57;;;;;;;-0.62;100.00;101094.56;5071180;28;20092;-70
2022/01/08 06:29:53;;;;;;;22.20;10.88;;;;;;;-0.60;100.00;101097.06;5071180;28;20044;-70
2022/01/08 06:32:20;;;;;;;22.02;11.60;;;;;;;-0.63;100.00;101090.25;5090061;28;20083;-70
2022/01/08 06:34:45;;;;;;;24.80;10.32;;;;;;;-0.56;100.00;101085.41;5090554;28;20034;-70
2022/01/08 06:37:12;;;;;;;18.45;10.10;;;;;;;-0.53;100.00;101090.41;5089445;28;20036;-70
2022/01/08 06:39:37;;;;;;;21.80;10.25;;;;;;;-0.55;100.00;101082.69;5090442;28;20077;-70
2022/01/08 06:42:03;;;;;;;29.83;11.80;;;;;;;-0.51;100.00;101084.09;5090135;28;20045;-70
2022/01/08 06:44:29;;;;;;;19.75;10.07;;;;;;;-0.48;100.00;101083.84;5079834;28;20087;-70
2022/01/08 06:46:54;;;;;;;22.13;11.35;;;;;;;-0.43;100.00;101080.03;5070884;28;20032;-70
2022/01/08 06:49:20;;;;;;;19.98;10.68;;;;;;;-0.43;100.00;101073.00;5088880;28;20394;-70
2022/01/08 06:51:46;;;;;;;23.80;10.98;;;;;;;-0.39;100.00;101082.31;5090036;28;20495;-70
2022/01/08 06:54:11;;;;;;;22.50;11.38;;;;;;;-0.37;100.00;101077.75;5089682;28;20032;-70
2022/01/08 06:56:36;;;;;;;18.02;9.95;;;;;;;-0.36;100.00;101076.00;5088930;28;20119;-70
2022/01/08 06:59:02;;;;;;;22.20;12.02;;;;;;;-0.37;100.00;101079.56;5089911;28;20039;-70
2022/01/08 07:01:27;;;;;;;33.15;11.23;;;;;;;-0.36;100.00;101065.53;5083130;28;20025;-70
2022/01/08 07:03:55;;;;;;;17.98;12.15;;;;;;;-0.36;100.00;101079.44;5070549;28;20549;-70
2022/01/08 07:06:21;;;;;;;22.40;11.02;;;;;;;-0.35;100.00;101077.66;5089973;28;20053;-70
2022/01/08 07:08:46;;;;;;;27.65;13.38;;;;;;;-0.45;100.00;101062.66;5089940;28;20465;-70
2022/01/08 07:11:12;;;;;;;20.70;11.20;;;;;;;-0.40;100.00;101075.38;5089593;28;20036;-70
2022/01/08 07:13:37;;;;;;;29.77;14.07;;;;;;;-0.39;100.00;101081.47;5089600;28;20028;-67
2022/01/08 07:16:03;;;;;;;21.33;11.07;;;;;;;-0.41;100.00;101088.63;5089186;28;20451;-67
2022/01/08 07:18:28;;;;;;;21.70;11.63;;;;;;;-0.47;100.00;101080.28;5089513;28;20032;-67
2022/01/08 07:20:54;;;;;;;18.45;11.07;;;;;;;-0.51;100.00;101078.84;5089528;28;20085;-67
2022/01/08 07:23:20;;;;;;;21.35;11.50;;;;;;;-0.47;100.00;101085.53;5089449;28;20085;-68
2022/01/08 07:25:46;;;;;;;25.73;12.70;;;;;;;-0.48;100.00;101083.84;5088169;28;20430;-67
2022/01/08 07:28:11;;;;;;;17.17;10.23;;;;;;;-0.50;100.00;101079.69;5089567;28;20036;-67
2022/01/08 07:30:36;;;;;;;19.40;9.82;;;;;;;-0.51;100.00;101076.22;5089526;28;20055;-67
2022/01/08 07:33:02;;;;;;;21.77;11.73;;;;;;;-0.50;100.00;101080.53;5088097;28;20028;-67
2022/01/08 07:35:27;;;;;;;19.30;9.35;;;;;;;-0.51;100.00;101078.03;5088627;28;20376;-67
2022/01/08 07:37:53;;;;;;;16.63;9.38;;;;;;;-0.52;100.00;101073.75;5088182;28;20059;-67
2022/01/08 07:40:20;;;;;;;24.80;10.27;;;;;;;-0.49;100.00;101070.88;5089292;28;20035;-67
2022/01/08 07:42:46;;;;;;;19.88;10.40;;;;;;;-0.50;100.00;101072.69;5089370;28;20532;-67
2022/01/08 07:45:12;;;;;;;22.33;10.48;;;;;;;-0.49;100.00;101076.94;5089147;28;20080;-67
2022/01/08 07:47:37;;;;;;;17.02;9.57;;;;;;;-0.49;100.00;101079.56;5089249;28;20032;-67
2022/01/08 07:50:04;;;;;;;21.15;10.57;;;;;;;-0.49;100.00;101078.75;5088905;28;20034;-67
2022/01/08 07:52:30;;;;;;;25.33;11.93;;;;;;;-0.48;100.00;101075.16;5089064;28;20042;-67
2022/01/08 07:54:55;;;;;;;20.00;9.98;;;;;;;-0.45;100.00;101080.16;5089081;28;20028;-67
2022/01/08 07:57:20;;;;;;;21.38;10.95;;;;;;;-0.41;100.00;101068.50;5089186;28;20032;-67
2022/01/08 07:59:46;;;;;;;20.90;9.23;;;;;;;-0.38;100.00;101067.41;5089296;28;20435;-67
2022/01/08 08:02:11;;;;;;;19.17;9.77;;;;;;;-0.33;100.00;101063.47;5089280;28;20032;-67
2022/01/08 08:04:37;;;;;;;19.58;10.27;;;;;;;-0.29;100.00;101066.69;5089044;28;20441;-67
2022/01/08 08:07:03;;;;;;;28.20;11.70;;;;;;;-0.32;100.00;101054.66;5087319;28;20105;-67
2022/01/08 08:09:29;;;;;;;22.00;10.00;;;;;;;-0.19;100.00;101067.63;5072587;28;20035;-68
2022/01/08 08:11:54;;;;;;;22.17;9.75;;;;;;;-0.17;100.00;101063.09;5088914;28;20032;-67
2022/01/08 08:14:19;;;;;;;30.73;12.60;;;;;;;-0.13;100.00;101059.28;5089115;28;20031;-67
2022/01/08 08:16:45;;;;;;;22.40;9.75;;;;;;;-0.10;100.00;101053.81;5089023;28;20032;-67
2022/01/08 08:19:10;;;;;;;21.23;9.85;;;;;;;-0.03;100.00;101067.22;5088929;28;20020;-67
2022/01/08 08:21:36;;;;;;;19.73;9.15;;;;;;;-0.01;100.00;101063.53;5088804;28;20081;-68
2022/01/08 08:24:04;;;;;;;20.05;9.95;;;;;;;0.05;100.00;101058.75;5089059;28;20092;-67
2022/01/08 08:26:30;;;;;;;23.58;9.63;;;;;;;0.09;100.00;101054.94;5088942;28;20593;-67
2022/01/08 08:28:55;;;;;;;21.10;9.82;;;;;;;0.12;100.00;101054.69;5088956;28;20111;-67
2022/01/08 08:31:21;;;;;;;20.77;10.25;;;;;;;0.08;100.00;101042.78;5088246;28;20473;-67
2022/01/08 08:33:46;;;;;;;24.55;10.02;;;;;;;0.13;100.00;101041.47;5069051;28;20040;-67
2022/01/08 08:36:11;;;;;;;21.60;9.23;;;;;;;0.15;100.00;101043.94;5069350;28;20047;-68
2022/01/08 08:38:37;;;;;;;20.52;8.95;;;;;;;0.14;100.00;101037.88;5069266;28;20124;-67
2022/01/08 08:41:02;;;;;;;18.63;8.70;;;;;;;0.16;100.00;101040.41;5087136;28;20024;-67
2022/01/08 08:43:28;;;;;;;19.02;10.32;;;;;;;0.20;100.00;101041.78;5087388;28;20048;-67
2022/01/08 08:45:53;;;;;;;19.25;8.55;;;;;;;0.20;100.00;101031.31;5088922;28;20432;-67
2022/01/08 08:48:19;;;;;;;21.17;9.13;;;;;;;0.18;100.00;101035.84;5090920;28;20513;-68
2022/01/08 08:50:45;;;;;;;17.35;8.57;;;;;;;0.25;100.00;101041.44;5092244;28;20380;-66
2022/01/08 08:53:11;;;;;;;20.27;9.27;;;;;;;0.26;100.00;101036.03;5091996;28;20120;-70
2022/01/08 08:55:36;;;;;;;21.00;10.63;;;;;;;0.28;100.00;101039.38;5091581;28;20399;-66
2022/01/08 08:58:02;;;;;;;20.58;8.23;;;;;;;0.32;100.00;101045.22;5073026;28;20040;-67
2022/01/08 09:00:27;;;;;;;20.77;8.82;;;;;;;0.36;100.00;101041.38;5071831;28;20531;-67
2022/01/08 09:02:52;;;;;;;19.52;9.50;;;;;;;0.36;100.00;101031.69;5072995;28;20418;-67
2022/01/08 09:05:18;;;;;;;23.48;10.05;;;;;;;0.42;100.00;101030.41;5072657;28;20353;-67
2022/01/08 09:07:43;;;;;;;22.00;8.73;;;;;;;0.45;100.00;101035.38;5072567;28;20021;-67
2022/01/08 09:10:10;;;;;;;19.52;8.63;;;;;;;0.44;100.00;101029.28;5072509;28;20074;-67
2022/01/08 09:12:37;;;;;;;21.23;8.68;;;;;;;0.50;100.00;101037.59;5091806;28;20024;-67
2022/01/08 09:15:04;;;;;;;22.48;8.88;;;;;;;0.53;100.00;101032.13;5092009;28;20035;-67
2022/01/08 09:17:30;;;;;;;18.80;8.13;;;;;;;0.55;100.00;101025.78;5092138;28;20032;-67
2022/01/08 09:19:55;;;;;;;22.95;10.27;;;;;;;0.58;100.00;101024.72;5092068;28;20542;-67
2022/01/08 09:22:21;;;;;;;19.90;9.95;;;;;;;0.59;100.00;101018.50;5090597;28;20032;-67
2022/01/08 09:24:46;;;;;;;24.25;10.63;;;;;;;0.65;100.00;101026.69;5091682;28;20040;-67
2022/01/08 09:27:12;;;;;;;23.23;10.63;;;;;;;0.69;100.00;101024.63;5091763;28;20158;-67
2022/01/08 09:29:38;;;;;;;22.70;10.00;;;;;;;0.74;100.00;101026.88;5091611;28;20028;-67
2022/01/08 09:32:05;;;;;;;26.20;11.55;;;;;;;0.72;100.00;101015.69;5091479;28;20028;-67
2022/01/08 09:34:31;;;;;;;28.13;12.30;;;;;;;0.81;100.00;101021.00;5091626;28;20035;-67
2022/01/08 09:36:58;;;;;;;23.52;10.35;;;;;;;0.85;100.00;101018.94;5091344;28;20055;-67
2022/01/08 09:39:24;;;;;;;28.77;10.95;;;;;;;0.88;100.00;101016.03;5091506;28;20102;-67
2022/01/08 09:41:49;;;;;;;24.48;10.80;;;;;;;0.94;100.00;101010.25;5091613;28;20115;-68
2022/01/08 09:44:15;;;;;;;30.23;12.52;;;;;;;0.98;100.00;101014.31;5077022;28;20048;-67
2022/01/08 09:46:40;;;;;;;27.13;11.00;;;;;;;1.00;100.00;101003.69;5075080;28;20033;-67
2022/01/08 09:49:06;;;;;;;22.83;12.07;;;;;;;1.08;100.00;100990.72;5075716;28;20016;-66
2022/01/08 09:51:31;;;;;;;24.30;10.32;;;;;;;1.13;100.00;100985.91;5074998;28;20036;-66
2022/01/08 09:53:56;;;;;;;27.38;12.60;;;;;;;1.15;100.00;100981.31;5080066;28;20035;-67
2022/01/08 09:56:24;;;;;;;26.88;11.52;;;;;;;1.18;100.00;100974.97;5071883;28;20127;-66
2022/01/08 09:58:50;;;;;;;40.78;13.23;;;;;;;1.25;100.00;100973.50;5071033;28;20029;-66
2022/01/08 10:01:33;;;;;;;26.98;13.00;;;;;;;1.30;100.00;100966.03;5071805;28;20039;-67
2022/01/08 10:04:01;;;;;;;22.85;10.85;;;;;;;1.37;100.00;100963.72;5091319;28;20028;-66
2022/01/08 10:06:33;;;;;;;26.33;11.98;;;;;;;1.42;100.00;100961.53;5071728;28;20143;-66
2022/01/08 10:08:59;;;;;;;22.98;11.88;;;;;;;1.44;100.00;100947.28;5071591;28;20024;-66
2022/01/08 10:11:26;;;;;;;24.83;12.05;;;;;;;1.48;100.00;100945.22;5071453;28;20035;-67
2022/01/08 10:14:02;;;;;;;25.45;12.18;;;;;;;1.48;100.00;100930.28;5071547;28;20059;-67
2022/01/08 10:19:24;;;;;;;24.85;12.55;;;;;;;1.45;100.00;100912.16;5071731;28;20039;-65
2022/01/08 10:21:51;;;;;;;28.13;11.88;;;;;;;1.50;100.00;100902.06;5071511;28;20484;-66
2022/01/08 10:24:19;;;;;;;24.95;11.35;;;;;;;1.58;100.00;100909.28;5090530;28;20134;-67
2022/01/08 10:26:45;;;;;;;29.75;12.45;;;;;;;1.64;100.00;100894.75;5090637;28;20380;-66
2022/01/08 10:29:17;;;;;;;24.70;12.18;;;;;;;1.69;100.00;100889.91;5090545;28;20028;-66
2022/01/08 10:31:48;;;;;;;29.88;11.38;;;;;;;1.77;100.00;100881.31;5090217;28;20498;-66
2022/01/08 10:34:24;;;;;;;27.50;11.68;;;;;;;1.78;100.00;100875.91;5090605;28;20055;-66
2022/01/08 10:36:59;;;;;;;29.73;12.05;;;;;;;1.80;99.70;100860.84;5090492;28;20028;-66
2022/01/08 10:39:28;;;;;;;25.42;12.15;;;;;;;1.83;99.52;100862.34;5090469;28;20095;-66
2022/01/08 10:41:55;;;;;;;27.98;10.77;;;;;;;1.86;99.54;100859.44;5089232;28;20410;-67
2022/01/08 10:44:21;;;;;;;25.90;11.70;;;;;;;1.88;99.71;100858.34;5080883;28;20052;-68
2022/01/08 10:47:06;;;;;;;33.63;12.75;;;;;;;1.89;99.48;100840.78;5074635;28;20027;-67
2022/01/08 10:49:39;;;;;;;25.25;11.13;;;;;;;1.93;99.48;100844.78;5074076;28;20375;-67
2022/01/08 10:52:05;;;;;;;27.05;11.70;;;;;;;1.95;99.05;100834.94;5073998;28;20366;-67
2022/01/08 10:54:36;;;;;;;24.50;10.32;;;;;;;1.97;99.16;100828.56;5075066;28;20040;-68
2022/01/08 10:57:06;;;;;;;26.95;13.07;;;;;;;1.92;99.06;100807.13;5074052;28;20032;-66
2022/01/08 10:59:33;;;;;;;23.60;11.20;;;;;;;2.02;98.92;100819.41;5074462;28;20020;-67
2022/01/08 11:02:06;;;;;;;24.55;10.10;;;;;;;2.08;99.09;100813.59;5074355;28;20456;-68
2022/01/08 11:04:33;;;;;;;23.10;9.80;;;;;;;2.15;98.94;100804.19;5074132;28;20100;-66
2022/01/08 11:07:00;;;;;;;23.83;10.88;;;;;;;2.19;98.49;100800.28;5074274;28;20028;-68
2022/01/08 11:09:27;;;;;;;19.60;8.98;;;;;;;2.24;98.00;100791.97;5073979;28;20020;-68
2022/01/08 11:11:55;;;;;;;18.20;7.63;;;;;;;2.26;98.22;100775.06;5072796;28;20040;-67
2022/01/08 11:17:14;;;;;;;21.70;9.57;;;;;;;2.34;98.23;100769.88;5073982;28;20097;-68
2022/01/08 11:19:43;;;;;;;23.83;10.40;;;;;;;2.39;98.06;100764.19;5074469;28;20024;-67
2022/01/08 11:22:11;;;;;;;26.50;11.38;;;;;;;2.43;97.70;100768.19;5073198;28;20024;-69
2022/01/08 11:24:42;;;;;;;22.52;10.40;;;;;;;2.47;97.68;100761.66;5073501;28;20115;-70
2022/01/08 11:27:08;;;;;;;24.25;8.73;;;;;;;2.50;97.68;100750.00;5074520;28;20480;-70
2022/01/08 11:29:35;;;;;;;21.38;9.40;;;;;;;2.56;97.44;100747.59;5072403;28;20098;-70